sensor_id;sensor_type;location;lat;lon;timestamp;pressure;altitude;pressure_sealevel;temperature;humidity
31331;BME280;34067;39.548;-76.088;2022-12-07T00:01:19;102224.40;;;9.74;76.09
31331;BME280;34067;39.548;-76.088;2022-12-07T00:03:49;102226.31;;;9.97;76.83
31331;BME280;34067;39.548;-76.088;2022-12-07T00:06:19;102226.74;;;9.72;77.16
31331;BME280;34067;39.548;-76.088;2022-12-07T00:08:48;102231.30;;;9.78;78.28
31331;BME280;34067;39.548;-76.088;2022-12-07T00:11:20;102240.14;;;10.32;78.07
31331;BME280;34067;39.548;-76.088;2022-12-07T00:13:51;102237.97;;;9.73;79.11
31331;BME280;34067;39.548;-76.088;2022-12-07T00:16:22;102233.71;;;10.34;78.80
31331;BME280;34067;39.548;-76.088;2022-12-07T00:18:51;102237.48;;;10.45;78.69
31331;BME280;34067;39.548;-76.088;2022-12-07T00:21:22;102239.21;;;10.64;78.56
31331;BME280;34067;39.548;-76.088;2022-12-07T00:23:51;102243.00;;;10.50;77.72
31331;BME280;34067;39.548;-76.088;2022-12-07T00:26:21;102248.09;;;10.26;78.46
31331;BME280;34067;39.548;-76.088;2022-12-07T00:28:51;102248.67;;;10.37;78.44
31331;BME280;34067;39.548;-76.088;2022-12-07T00:31:21;102244.83;;;10.46;77.50
31331;BME280;34067;39.548;-76.088;2022-12-07T00:33:49;102237.89;;;10.14;77.80
31331;BME280;34067;39.548;-76.088;2022-12-07T00:36:20;102237.26;;;10.25;77.40
31331;BME280;34067;39.548;-76.088;2022-12-07T00:38:48;102240.05;;;10.26;78.87
31331;BME280;34067;39.548;-76.088;2022-12-07T00:41:18;102246.78;;;10.03;79.26
31331;BME280;34067;39.548;-76.088;2022-12-07T00:43:47;102252.33;;;10.31;78.17
31331;BME280;34067;39.548;-76.088;2022-12-07T00:46:17;102256.52;;;10.41;78.15
31331;BME280;34067;39.548;-76.088;2022-12-07T00:48:45;102255.91;;;10.01;78.25
31331;BME280;34067;39.548;-76.088;2022-12-07T00:51:14;102260.32;;;10.25;78.44
31331;BME280;34067;39.548;-76.088;2022-12-07T00:53:43;102261.63;;;9.83;79.83
31331;BME280;34067;39.548;-76.088;2022-12-07T00:56:14;102260.80;;;9.79;80.54
31331;BME280;34067;39.548;-76.088;2022-12-07T00:58:43;102259.00;;;9.87;80.98
31331;BME280;34067;39.548;-76.088;2022-12-07T01:01:11;102258.37;;;9.73;80.26
31331;BME280;34067;39.548;-76.088;2022-12-07T01:03:38;102263.66;;;10.05;80.16
31331;BME280;34067;39.548;-76.088;2022-12-07T01:06:07;102262.73;;;10.20;80.00
31331;BME280;34067;39.548;-76.088;2022-12-07T01:08:35;102260.52;;;9.84;80.09
31331;BME280;34067;39.548;-76.088;2022-12-07T01:11:05;102255.63;;;10.53;79.39
31331;BME280;34067;39.548;-76.088;2022-12-07T01:13:35;102256.70;;;9.62;79.26
31331;BME280;34067;39.548;-76.088;2022-12-07T01:16:05;102253.40;;;10.02;79.78
31331;BME280;34067;39.548;-76.088;2022-12-07T01:18:35;102251.12;;;10.73;79.38
31331;BME280;34067;39.548;-76.088;2022-12-07T01:21:05;102247.83;;;10.26;79.10
31331;BME280;34067;39.548;-76.088;2022-12-07T01:23:35;102246.32;;;10.17;79.28
31331;BME280;34067;39.548;-76.088;2022-12-07T01:26:05;102244.96;;;10.30;78.61
31331;BME280;34067;39.548;-76.088;2022-12-07T01:28:33;102234.68;;;10.20;79.00
31331;BME280;34067;39.548;-76.088;2022-12-07T01:31:04;102230.97;;;10.60;78.50
31331;BME280;34067;39.548;-76.088;2022-12-07T01:33:34;102230.58;;;9.47;80.42
31331;BME280;34067;39.548;-76.088;2022-12-07T01:36:03;102230.69;;;9.96;81.01
31331;BME280;34067;39.548;-76.088;2022-12-07T01:38:32;102238.06;;;9.69;82.29
31331;BME280;34067;39.548;-76.088;2022-12-07T01:41:01;102244.42;;;10.00;82.36
31331;BME280;34067;39.548;-76.088;2022-12-07T01:43:31;102245.89;;;10.01;82.94
31331;BME280;34067;39.548;-76.088;2022-12-07T01:46:01;102244.26;;;10.49;81.42
31331;BME280;34067;39.548;-76.088;2022-12-07T01:48:34;102244.50;;;10.41;80.14
31331;BME280;34067;39.548;-76.088;2022-12-07T01:51:08;102244.63;;;10.67;80.48
31331;BME280;34067;39.548;-76.088;2022-12-07T01:53:40;102234.38;;;8.52;85.04
31331;BME280;34067;39.548;-76.088;2022-12-07T01:56:13;102233.81;;;9.84;81.44
31331;BME280;34067;39.548;-76.088;2022-12-07T01:58:43;102234.64;;;9.29;83.44
31331;BME280;34067;39.548;-76.088;2022-12-07T02:01:12;102237.28;;;9.42;83.49
31331;BME280;34067;39.548;-76.088;2022-12-07T02:03:42;102243.12;;;9.79;83.27
31331;BME280;34067;39.548;-76.088;2022-12-07T02:06:14;102239.89;;;10.24;82.00
31331;BME280;34067;39.548;-76.088;2022-12-07T02:08:44;102239.60;;;10.05;81.78
31331;BME280;34067;39.548;-76.088;2022-12-07T02:11:13;102239.46;;;10.16;80.64
31331;BME280;34067;39.548;-76.088;2022-12-07T02:13:42;102235.81;;;10.15;80.45
31331;BME280;34067;39.548;-76.088;2022-12-07T02:16:19;102236.52;;;10.64;80.37
31331;BME280;34067;39.548;-76.088;2022-12-07T02:18:59;102236.00;;;10.27;80.25
31331;BME280;34067;39.548;-76.088;2022-12-07T02:21:37;102231.23;;;10.33;79.85
31331;BME280;34067;39.548;-76.088;2022-12-07T02:24:28;102224.05;;;10.31;79.72
31331;BME280;34067;39.548;-76.088;2022-12-07T02:27:14;102211.08;;;10.44;78.76
31331;BME280;34067;39.548;-76.088;2022-12-07T02:29:52;102215.99;;;10.79;79.50
31331;BME280;34067;39.548;-76.088;2022-12-07T02:32:25;102223.15;;;10.68;80.09
31331;BME280;34067;39.548;-76.088;2022-12-07T02:34:58;102227.60;;;10.63;80.95
31331;BME280;34067;39.548;-76.088;2022-12-07T02:37:37;102230.81;;;10.59;81.57
31331;BME280;34067;39.548;-76.088;2022-12-07T02:40:10;102222.41;;;10.50;80.43
31331;BME280;34067;39.548;-76.088;2022-12-07T02:42:47;102217.11;;;10.74;80.02
31331;BME280;34067;39.548;-76.088;2022-12-07T02:45:21;102212.35;;;10.74;79.58
31331;BME280;34067;39.548;-76.088;2022-12-07T02:47:52;102208.60;;;10.60;79.91
31331;BME280;34067;39.548;-76.088;2022-12-07T02:50:22;102215.70;;;10.12;80.11
31331;BME280;34067;39.548;-76.088;2022-12-07T02:52:50;102226.75;;;10.39;80.75
31331;BME280;34067;39.548;-76.088;2022-12-07T02:55:26;102221.23;;;10.29;81.38
31331;BME280;34067;39.548;-76.088;2022-12-07T02:58:13;102218.82;;;9.84;81.57
31331;BME280;34067;39.548;-76.088;2022-12-07T03:00:52;102217.19;;;10.66;80.47
31331;BME280;34067;39.548;-76.088;2022-12-07T03:03:23;102208.62;;;10.82;79.85
31331;BME280;34067;39.548;-76.088;2022-12-07T03:06:06;102206.70;;;10.34;79.82
31331;BME280;34067;39.548;-76.088;2022-12-07T03:08:44;102204.39;;;10.92;79.12
31331;BME280;34067;39.548;-76.088;2022-12-07T03:11:19;102212.32;;;9.97;79.69
31331;BME280;34067;39.548;-76.088;2022-12-07T03:13:58;102212.41;;;10.04;79.71
31331;BME280;34067;39.548;-76.088;2022-12-07T03:16:31;102214.57;;;10.75;80.42
31331;BME280;34067;39.548;-76.088;2022-12-07T03:19:05;102217.75;;;10.66;79.62
31331;BME280;34067;39.548;-76.088;2022-12-07T03:21:40;102227.56;;;10.16;79.28
31331;BME280;34067;39.548;-76.088;2022-12-07T03:24:13;102232.13;;;10.67;79.29
31331;BME280;34067;39.548;-76.088;2022-12-07T03:26:44;102234.26;;;10.81;78.89
31331;BME280;34067;39.548;-76.088;2022-12-07T03:29:22;102233.82;;;10.33;79.48
31331;BME280;34067;39.548;-76.088;2022-12-07T03:31:56;102232.36;;;10.50;79.10
31331;BME280;34067;39.548;-76.088;2022-12-07T03:34:32;102239.85;;;10.65;78.63
31331;BME280;34067;39.548;-76.088;2022-12-07T03:37:05;102246.44;;;10.77;78.61
31331;BME280;34067;39.548;-76.088;2022-12-07T03:39:41;102252.07;;;10.65;78.73
31331;BME280;34067;39.548;-76.088;2022-12-07T03:42:13;102248.25;;;10.76;78.22
31331;BME280;34067;39.548;-76.088;2022-12-07T03:44:42;102255.28;;;10.85;77.96
31331;BME280;34067;39.548;-76.088;2022-12-07T03:47:14;102252.79;;;10.58;78.74
31331;BME280;34067;39.548;-76.088;2022-12-07T03:49:48;102248.89;;;10.59;78.70
31331;BME280;34067;39.548;-76.088;2022-12-07T03:52:23;102244.36;;;10.82;78.06
31331;BME280;34067;39.548;-76.088;2022-12-07T03:54:58;102243.18;;;11.05;78.53
31331;BME280;34067;39.548;-76.088;2022-12-07T03:57:28;102243.93;;;10.70;78.38
31331;BME280;34067;39.548;-76.088;2022-12-07T03:59:59;102246.72;;;10.02;78.57
31331;BME280;34067;39.548;-76.088;2022-12-07T04:02:29;102241.98;;;10.40;79.32
31331;BME280;34067;39.548;-76.088;2022-12-07T04:04:57;102238.76;;;10.20;79.74
31331;BME280;34067;39.548;-76.088;2022-12-07T04:07:25;102228.98;;;10.55;79.92
31331;BME280;34067;39.548;-76.088;2022-12-07T04:09:53;102227.19;;;10.79;79.47
31331;BME280;34067;39.548;-76.088;2022-12-07T04:12:22;102227.17;;;10.46;79.14
31331;BME280;34067;39.548;-76.088;2022-12-07T04:14:50;102226.22;;;10.49;79.04
31331;BME280;34067;39.548;-76.088;2022-12-07T04:17:20;102218.93;;;11.03;78.51
31331;BME280;34067;39.548;-76.088;2022-12-07T04:19:48;102215.55;;;10.57;78.53
31331;BME280;34067;39.548;-76.088;2022-12-07T04:22:16;102215.12;;;10.93;78.76
31331;BME280;34067;39.548;-76.088;2022-12-07T04:24:44;102209.90;;;10.92;78.65
31331;BME280;34067;39.548;-76.088;2022-12-07T04:27:12;102211.08;;;10.38;78.84
31331;BME280;34067;39.548;-76.088;2022-12-07T04:29:41;102209.85;;;10.76;79.21
31331;BME280;34067;39.548;-76.088;2022-12-07T04:32:09;102208.66;;;10.48;80.12
31331;BME280;34067;39.548;-76.088;2022-12-07T04:34:37;102205.14;;;10.44;80.45
31331;BME280;34067;39.548;-76.088;2022-12-07T04:37:05;102203.02;;;10.33;80.18
31331;BME280;34067;39.548;-76.088;2022-12-07T04:39:34;102201.19;;;10.12;79.42
31331;BME280;34067;39.548;-76.088;2022-12-07T04:42:02;102199.27;;;10.62;80.49
31331;BME280;34067;39.548;-76.088;2022-12-07T04:44:30;102192.59;;;10.17;79.52
31331;BME280;34067;39.548;-76.088;2022-12-07T04:46:58;102192.17;;;10.43;80.56
31331;BME280;34067;39.548;-76.088;2022-12-07T04:49:26;102191.56;;;10.91;80.90
31331;BME280;34067;39.548;-76.088;2022-12-07T04:51:54;102188.14;;;10.70;80.09
31331;BME280;34067;39.548;-76.088;2022-12-07T04:54:22;102183.80;;;10.74;79.52
31331;BME280;34067;39.548;-76.088;2022-12-07T04:56:50;102180.16;;;11.08;79.39
31331;BME280;34067;39.548;-76.088;2022-12-07T04:59:19;102183.48;;;10.27;79.40
31331;BME280;34067;39.548;-76.088;2022-12-07T05:01:46;102182.92;;;10.90;78.56
31331;BME280;34067;39.548;-76.088;2022-12-07T05:04:15;102178.43;;;11.11;79.28
31331;BME280;34067;39.548;-76.088;2022-12-07T05:06:43;102174.41;;;10.95;78.07
31331;BME280;34067;39.548;-76.088;2022-12-07T05:09:11;102174.51;;;10.99;78.29
31331;BME280;34067;39.548;-76.088;2022-12-07T05:11:39;102187.73;;;10.70;79.22
31331;BME280;34067;39.548;-76.088;2022-12-07T05:14:11;102194.70;;;10.56;80.06
31331;BME280;34067;39.548;-76.088;2022-12-07T05:16:40;102188.35;;;10.35;81.03
31331;BME280;34067;39.548;-76.088;2022-12-07T05:19:09;102188.49;;;10.69;81.98
31331;BME280;34067;39.548;-76.088;2022-12-07T05:21:37;102185.91;;;10.39;81.73
31331;BME280;34067;39.548;-76.088;2022-12-07T05:24:06;102188.03;;;10.41;82.17
31331;BME280;34067;39.548;-76.088;2022-12-07T05:26:35;102185.55;;;10.67;81.48
31331;BME280;34067;39.548;-76.088;2022-12-07T05:29:04;102174.92;;;10.62;80.47
31331;BME280;34067;39.548;-76.088;2022-12-07T05:31:32;102173.03;;;10.55;80.76
31331;BME280;34067;39.548;-76.088;2022-12-07T05:34:00;102177.47;;;10.69;80.63
31331;BME280;34067;39.548;-76.088;2022-12-07T05:36:28;102190.23;;;11.41;80.43
31331;BME280;34067;39.548;-76.088;2022-12-07T05:38:57;102195.15;;;11.06;79.43
31331;BME280;34067;39.548;-76.088;2022-12-07T05:41:25;102201.11;;;10.78;80.55
31331;BME280;34067;39.548;-76.088;2022-12-07T05:43:53;102196.99;;;10.95;81.25
31331;BME280;34067;39.548;-76.088;2022-12-07T05:46:21;102192.37;;;10.53;81.90
31331;BME280;34067;39.548;-76.088;2022-12-07T05:48:50;102193.69;;;10.64;80.19
31331;BME280;34067;39.548;-76.088;2022-12-07T05:51:18;102197.05;;;10.64;79.88
31331;BME280;34067;39.548;-76.088;2022-12-07T05:53:46;102201.98;;;11.15;79.08
31331;BME280;34067;39.548;-76.088;2022-12-07T05:56:14;102199.24;;;10.78;78.23
31331;BME280;34067;39.548;-76.088;2022-12-07T05:58:42;102189.19;;;10.63;78.68
31331;BME280;34067;39.548;-76.088;2022-12-07T06:03:09;102183.17;;;10.92;76.19
31331;BME280;34067;39.548;-76.088;2022-12-07T06:05:37;102184.16;;;10.46;76.47
31331;BME280;34067;39.548;-76.088;2022-12-07T06:08:06;102180.84;;;10.22;77.49
31331;BME280;34067;39.548;-76.088;2022-12-07T06:10:33;102188.81;;;10.32;78.63
31331;BME280;34067;39.548;-76.088;2022-12-07T06:13:02;102193.35;;;10.28;79.36
31331;BME280;34067;39.548;-76.088;2022-12-07T06:15:30;102188.40;;;10.85;79.26
31331;BME280;34067;39.548;-76.088;2022-12-07T06:17:58;102184.54;;;11.15;77.98
31331;BME280;34067;39.548;-76.088;2022-12-07T06:20:26;102182.25;;;11.44;77.96
31331;BME280;34067;39.548;-76.088;2022-12-07T06:22:54;102185.77;;;10.38;79.40
31331;BME280;34067;39.548;-76.088;2022-12-07T06:25:22;102186.37;;;10.25;80.09
31331;BME280;34067;39.548;-76.088;2022-12-07T06:27:50;102192.18;;;10.11;80.88
31331;BME280;34067;39.548;-76.088;2022-12-07T06:30:19;102188.16;;;10.88;80.28
31331;BME280;34067;39.548;-76.088;2022-12-07T06:32:47;102187.36;;;11.04;79.38
31331;BME280;34067;39.548;-76.088;2022-12-07T06:35:15;102183.50;;;10.72;78.87
31331;BME280;34067;39.548;-76.088;2022-12-07T06:37:44;102186.37;;;10.80;78.54
31331;BME280;34067;39.548;-76.088;2022-12-07T06:40:12;102183.01;;;10.68;78.96
31331;BME280;34067;39.548;-76.088;2022-12-07T06:42:40;102181.73;;;10.65;79.03
31331;BME280;34067;39.548;-76.088;2022-12-07T06:45:08;102186.47;;;10.61;79.08
31331;BME280;34067;39.548;-76.088;2022-12-07T06:47:36;102196.92;;;10.65;80.45
31331;BME280;34067;39.548;-76.088;2022-12-07T06:50:05;102204.46;;;10.50;81.45
31331;BME280;34067;39.548;-76.088;2022-12-07T06:52:33;102206.26;;;10.83;81.30
31331;BME280;34067;39.548;-76.088;2022-12-07T06:55:01;102205.28;;;11.06;80.93
31331;BME280;34067;39.548;-76.088;2022-12-07T06:57:29;102206.78;;;10.77;81.84
31331;BME280;34067;39.548;-76.088;2022-12-07T06:59:57;102207.36;;;10.67;82.68
31331;BME280;34067;39.548;-76.088;2022-12-07T07:02:25;102208.38;;;10.45;82.53
31331;BME280;34067;39.548;-76.088;2022-12-07T07:04:53;102215.39;;;10.63;82.11
31331;BME280;34067;39.548;-76.088;2022-12-07T07:07:22;102215.43;;;10.77;82.02
31331;BME280;34067;39.548;-76.088;2022-12-07T07:09:50;102218.37;;;10.75;82.14
31331;BME280;34067;39.548;-76.088;2022-12-07T07:12:18;102218.00;;;10.79;82.20
31331;BME280;34067;39.548;-76.088;2022-12-07T07:14:47;102217.56;;;10.90;81.95
31331;BME280;34067;39.548;-76.088;2022-12-07T07:17:15;102206.82;;;10.92;82.06
31331;BME280;34067;39.548;-76.088;2022-12-07T07:19:43;102203.89;;;11.34;80.50
31331;BME280;34067;39.548;-76.088;2022-12-07T07:22:11;102202.15;;;10.27;80.52
31331;BME280;34067;39.548;-76.088;2022-12-07T07:24:40;102202.07;;;11.52;80.10
31331;BME280;34067;39.548;-76.088;2022-12-07T07:27:08;102205.68;;;11.25;80.05
31331;BME280;34067;39.548;-76.088;2022-12-07T07:29:36;102209.43;;;11.27;81.18
31331;BME280;34067;39.548;-76.088;2022-12-07T07:32:04;102208.51;;;11.68;81.06
31331;BME280;34067;39.548;-76.088;2022-12-07T07:34:32;102201.96;;;10.99;80.95
31331;BME280;34067;39.548;-76.088;2022-12-07T07:37:00;102199.94;;;10.75;81.28
31331;BME280;34067;39.548;-76.088;2022-12-07T07:39:28;102203.77;;;10.76;81.47
31331;BME280;34067;39.548;-76.088;2022-12-07T07:41:56;102205.83;;;10.80;81.17
31331;BME280;34067;39.548;-76.088;2022-12-07T07:44:24;102206.42;;;10.85;80.69
31331;BME280;34067;39.548;-76.088;2022-12-07T07:46:52;102207.82;;;11.20;80.70
31331;BME280;34067;39.548;-76.088;2022-12-07T07:49:20;102203.68;;;10.97;81.59
31331;BME280;34067;39.548;-76.088;2022-12-07T07:51:48;102202.12;;;10.60;81.41
31331;BME280;34067;39.548;-76.088;2022-12-07T07:54:16;102197.75;;;11.11;81.32
31331;BME280;34067;39.548;-76.088;2022-12-07T07:56:44;102195.78;;;11.06;81.36
31331;BME280;34067;39.548;-76.088;2022-12-07T07:59:12;102193.54;;;10.71;81.18
31331;BME280;34067;39.548;-76.088;2022-12-07T08:01:41;102186.57;;;10.76;81.67
31331;BME280;34067;39.548;-76.088;2022-12-07T08:04:10;102182.13;;;11.34;82.67
31331;BME280;34067;39.548;-76.088;2022-12-07T08:06:38;102174.41;;;10.73;82.52
31331;BME280;34067;39.548;-76.088;2022-12-07T08:09:06;102172.83;;;10.68;82.10
31331;BME280;34067;39.548;-76.088;2022-12-07T08:11:34;102174.84;;;10.98;81.16
31331;BME280;34067;39.548;-76.088;2022-12-07T08:14:02;102173.81;;;11.07;80.43
31331;BME280;34067;39.548;-76.088;2022-12-07T08:16:30;102176.63;;;10.78;81.48
31331;BME280;34067;39.548;-76.088;2022-12-07T08:18:58;102174.37;;;10.80;81.79
31331;BME280;34067;39.548;-76.088;2022-12-07T08:21:26;102178.61;;;11.32;83.06
31331;BME280;34067;39.548;-76.088;2022-12-07T08:23:55;102172.97;;;11.11;82.28
31331;BME280;34067;39.548;-76.088;2022-12-07T08:26:24;102170.49;;;11.32;82.17
31331;BME280;34067;39.548;-76.088;2022-12-07T08:28:53;102167.56;;;10.68;80.95
31331;BME280;34067;39.548;-76.088;2022-12-07T08:31:21;102169.28;;;11.50;80.64
31331;BME280;34067;39.548;-76.088;2022-12-07T08:33:50;102172.95;;;11.13;80.60
31331;BME280;34067;39.548;-76.088;2022-12-07T08:36:18;102171.09;;;11.13;79.63
31331;BME280;34067;39.548;-76.088;2022-12-07T08:38:46;102168.48;;;11.03;80.14
31331;BME280;34067;39.548;-76.088;2022-12-07T08:41:14;102166.39;;;11.26;79.32
31331;BME280;34067;39.548;-76.088;2022-12-07T08:43:42;102161.42;;;11.31;79.13
31331;BME280;34067;39.548;-76.088;2022-12-07T08:46:16;102164.76;;;11.02;79.01
31331;BME280;34067;39.548;-76.088;2022-12-07T08:48:48;102161.60;;;11.07;79.12
31331;BME280;34067;39.548;-76.088;2022-12-07T08:51:17;102154.84;;;11.18;78.65
31331;BME280;34067;39.548;-76.088;2022-12-07T08:53:45;102149.51;;;11.25;78.21
31331;BME280;34067;39.548;-76.088;2022-12-07T08:56:13;102140.31;;;11.06;78.20
31331;BME280;34067;39.548;-76.088;2022-12-07T08:58:42;102137.81;;;11.09;77.90
31331;BME280;34067;39.548;-76.088;2022-12-07T09:01:10;102135.69;;;11.12;77.46
31331;BME280;34067;39.548;-76.088;2022-12-07T09:03:39;102143.79;;;10.93;78.02
31331;BME280;34067;39.548;-76.088;2022-12-07T09:06:07;102132.85;;;10.82;78.10
31331;BME280;34067;39.548;-76.088;2022-12-07T09:08:38;102140.82;;;10.84;78.37
31331;BME280;34067;39.548;-76.088;2022-12-07T09:11:09;102148.62;;;10.84;78.40
31331;BME280;34067;39.548;-76.088;2022-12-07T09:13:37;102143.74;;;10.76;78.11
31331;BME280;34067;39.548;-76.088;2022-12-07T09:16:05;102137.47;;;11.08;78.68
31331;BME280;34067;39.548;-76.088;2022-12-07T09:18:34;102140.07;;;10.75;79.90
31331;BME280;34067;39.548;-76.088;2022-12-07T09:21:01;102137.57;;;10.85;80.23
31331;BME280;34067;39.548;-76.088;2022-12-07T09:23:29;102136.40;;;10.62;79.62
31331;BME280;34067;39.548;-76.088;2022-12-07T09:26:00;102140.17;;;10.65;79.64
31331;BME280;34067;39.548;-76.088;2022-12-07T09:28:28;102148.76;;;11.23;79.03
31331;BME280;34067;39.548;-76.088;2022-12-07T09:30:57;102141.58;;;11.03;79.60
31331;BME280;34067;39.548;-76.088;2022-12-07T09:33:25;102137.37;;;10.60;80.39
31331;BME280;34067;39.548;-76.088;2022-12-07T09:35:53;102140.14;;;10.55;80.23
31331;BME280;34067;39.548;-76.088;2022-12-07T09:38:22;102148.68;;;10.89;80.41
31331;BME280;34067;39.548;-76.088;2022-12-07T09:40:50;102142.12;;;10.75;80.82
31331;BME280;34067;39.548;-76.088;2022-12-07T09:43:20;102126.61;;;10.66;80.53
31331;BME280;34067;39.548;-76.088;2022-12-07T09:45:50;102121.73;;;10.82;80.05
31331;BME280;34067;39.548;-76.088;2022-12-07T09:48:19;102113.29;;;10.83;79.88
31331;BME280;34067;39.548;-76.088;2022-12-07T09:50:49;102110.38;;;10.76;79.44
31331;BME280;34067;39.548;-76.088;2022-12-07T09:53:23;102107.59;;;10.86;79.32
31331;BME280;34067;39.548;-76.088;2022-12-07T09:55:52;102107.23;;;10.93;78.78
31331;BME280;34067;39.548;-76.088;2022-12-07T09:58:23;102106.80;;;10.43;80.06
31331;BME280;34067;39.548;-76.088;2022-12-07T10:00:55;102108.58;;;10.43;80.30
31331;BME280;34067;39.548;-76.088;2022-12-07T10:03:25;102111.43;;;10.47;80.49
31331;BME280;34067;39.548;-76.088;2022-12-07T10:05:54;102116.86;;;10.81;79.92
31331;BME280;34067;39.548;-76.088;2022-12-07T10:08:22;102116.96;;;10.73;81.07
31331;BME280;34067;39.548;-76.088;2022-12-07T10:10:52;102121.75;;;10.86;81.06
31331;BME280;34067;39.548;-76.088;2022-12-07T10:13:22;102123.97;;;10.94;81.20
31331;BME280;34067;39.548;-76.088;2022-12-07T10:15:52;102126.90;;;11.07;79.22
31331;BME280;34067;39.548;-76.088;2022-12-07T10:18:27;102127.32;;;10.77;79.03
31331;BME280;34067;39.548;-76.088;2022-12-07T10:21:05;102124.57;;;11.33;81.15
31331;BME280;34067;39.548;-76.088;2022-12-07T10:23:39;102117.15;;;10.60;82.38
31331;BME280;34067;39.548;-76.088;2022-12-07T10:26:40;102125.86;;;10.85;80.83
31331;BME280;34067;39.548;-76.088;2022-12-07T10:29:18;102127.11;;;10.96;80.18
31331;BME280;34067;39.548;-76.088;2022-12-07T10:31:52;102122.39;;;10.35;81.21
31331;BME280;34067;39.548;-76.088;2022-12-07T10:34:23;102115.79;;;10.10;83.35
31331;BME280;34067;39.548;-76.088;2022-12-07T10:36:53;102118.96;;;11.09;80.86
31331;BME280;34067;39.548;-76.088;2022-12-07T10:39:23;102131.79;;;10.88;80.90
31331;BME280;34067;39.548;-76.088;2022-12-07T10:41:56;102141.99;;;11.13;81.68
31331;BME280;34067;39.548;-76.088;2022-12-07T10:44:26;102137.91;;;10.83;81.97
31331;BME280;34067;39.548;-76.088;2022-12-07T10:47:34;102130.16;;;10.88;81.83
31331;BME280;34067;39.548;-76.088;2022-12-07T10:50:49;102130.66;;;10.98;80.79
31331;BME280;34067;39.548;-76.088;2022-12-07T10:53:33;102123.10;;;10.92;81.12
31331;BME280;34067;39.548;-76.088;2022-12-07T10:56:20;102125.61;;;10.50;80.78
31331;BME280;34067;39.548;-76.088;2022-12-07T10:59:04;102127.87;;;11.06;81.31
31331;BME280;34067;39.548;-76.088;2022-12-07T11:01:41;102118.88;;;11.45;80.21
31331;BME280;34067;39.548;-76.088;2022-12-07T11:04:21;102113.14;;;11.43;79.52
31331;BME280;34067;39.548;-76.088;2022-12-07T11:06:57;102114.24;;;11.15;79.85
31331;BME280;34067;39.548;-76.088;2022-12-07T11:09:45;102114.01;;;11.71;79.85
31331;BME280;34067;39.548;-76.088;2022-12-07T11:12:26;102113.24;;;10.76;80.11
31331;BME280;34067;39.548;-76.088;2022-12-07T11:15:04;102131.00;;;11.29;80.00
31331;BME280;34067;39.548;-76.088;2022-12-07T11:17:42;102131.75;;;11.15;81.08
31331;BME280;34067;39.548;-76.088;2022-12-07T11:20:26;102124.82;;;11.04;81.63
31331;BME280;34067;39.548;-76.088;2022-12-07T11:23:04;102121.70;;;11.21;82.06
31331;BME280;34067;39.548;-76.088;2022-12-07T11:25:47;102126.40;;;11.59;80.99
31331;BME280;34067;39.548;-76.088;2022-12-07T11:28:30;102119.02;;;11.61;81.02
31331;BME280;34067;39.548;-76.088;2022-12-07T11:31:12;102120.66;;;10.84;80.80
31331;BME280;34067;39.548;-76.088;2022-12-07T11:33:49;102128.17;;;11.26;79.83
31331;BME280;34067;39.548;-76.088;2022-12-07T11:36:33;102136.26;;;11.83;78.43
31331;BME280;34067;39.548;-76.088;2022-12-07T11:39:11;102142.15;;;11.32;79.10
31331;BME280;34067;39.548;-76.088;2022-12-07T11:41:43;102153.45;;;11.02;81.07
31331;BME280;34067;39.548;-76.088;2022-12-07T11:44:24;102156.14;;;11.33;81.08
31331;BME280;34067;39.548;-76.088;2022-12-07T11:47:02;102157.54;;;11.53;81.30
31331;BME280;34067;39.548;-76.088;2022-12-07T11:49:42;102157.65;;;11.01;81.43
31331;BME280;34067;39.548;-76.088;2022-12-07T11:52:20;102157.29;;;10.81;81.26
31331;BME280;34067;39.548;-76.088;2022-12-07T11:54:53;102162.54;;;11.11;81.28
31331;BME280;34067;39.548;-76.088;2022-12-07T11:57:29;102157.50;;;10.26;80.89
31331;BME280;34067;39.548;-76.088;2022-12-07T12:00:03;102151.86;;;10.43;82.14
31331;BME280;34067;39.548;-76.088;2022-12-07T12:02:36;102143.14;;;9.92;83.02
31331;BME280;34067;39.548;-76.088;2022-12-07T12:05:14;102150.68;;;9.70;84.72
31331;BME280;34067;39.548;-76.088;2022-12-07T12:07:45;102148.28;;;10.54;84.94
31331;BME280;34067;39.548;-76.088;2022-12-07T12:10:21;102148.49;;;10.85;84.50
31331;BME280;34067;39.548;-76.088;2022-12-07T12:15:26;102164.99;;;11.64;84.56
31331;BME280;34067;39.548;-76.088;2022-12-07T12:18:10;102167.49;;;11.63;82.52
31331;BME280;34067;39.548;-76.088;2022-12-07T12:20:45;102167.08;;;11.48;82.85
31331;BME280;34067;39.548;-76.088;2022-12-07T12:23:17;102166.04;;;11.67;82.76
31331;BME280;34067;39.548;-76.088;2022-12-07T12:25:50;102164.80;;;11.82;82.48
31331;BME280;34067;39.548;-76.088;2022-12-07T12:28:23;102166.21;;;11.44;81.60
31331;BME280;34067;39.548;-76.088;2022-12-07T12:31:10;102176.80;;;11.13;81.48
31331;BME280;34067;39.548;-76.088;2022-12-07T12:33:44;102176.93;;;11.62;81.30
31331;BME280;34067;39.548;-76.088;2022-12-07T12:36:20;102174.27;;;11.47;79.77
31331;BME280;34067;39.548;-76.088;2022-12-07T12:38:52;102171.45;;;11.36;81.19
31331;BME280;34067;39.548;-76.088;2022-12-07T12:41:53;102185.75;;;11.59;80.04
31331;BME280;34067;39.548;-76.088;2022-12-07T12:44:41;102189.95;;;11.35;82.22
31331;BME280;34067;39.548;-76.088;2022-12-07T12:47:42;102186.32;;;10.97;84.25
31331;BME280;34067;39.548;-76.088;2022-12-07T12:50:18;102193.66;;;11.03;85.29
31331;BME280;34067;39.548;-76.088;2022-12-07T12:52:51;102204.02;;;11.14;81.71
31331;BME280;34067;39.548;-76.088;2022-12-07T12:56:19;102196.95;;;10.51;82.67
31331;BME280;34067;39.548;-76.088;2022-12-07T12:59:25;102196.08;;;9.32;87.28